Time;durP1;ratioP1;P1;durP2;ratioP2;P2;SDS_P1;SDS_P2;PMS_P1;PMS_P2;Temp;Humidity;BMP_temperature;BMP_pressure;BME280_temperature;BME280_humidity;BME280_pressure;Samples;Min_cycle;Max_cycle;Signal;HPM_P1;HPM_P2
2022/06/08 00:00:08;;;;;;;1.10;0.20;;;19.50;61.70;;;;;;5034643;28;20140;-72
2022/06/08 00:02:38;;;;;;;2.55;0.45;;;19.50;61.80;;;;;;5037964;28;20037;-74
2022/06/08 00:05:04;;;;;;;0.73;0.40;;;19.50;61.80;;;;;;5035927;28;20060;-72
2022/06/08 00:07:30;;;;;;;0.47;0.30;;;19.50;61.90;;;;;;5037674;28;20079;-74
2022/06/08 00:09:56;;;;;;;1.45;0.30;;;19.40;61.70;;;;;;5038292;28;20029;-73
2022/06/08 00:12:22;;;;;;;0.95;0.32;;;19.40;61.80;;;;;;5026944;28;20041;-72
2022/06/08 00:14:48;;;;;;;0.77;0.40;;;19.40;61.90;;;;;;5031235;28;20040;-71
2022/06/08 00:17:14;;;;;;;0.22;0.22;;;19.40;62.00;;;;;;5030827;28;20075;-72
2022/06/08 00:19:41;;;;;;;1.05;0.30;;;19.40;62.00;;;;;;5021879;28;20032;-72
2022/06/08 00:22:07;;;;;;;0.52;0.20;;;19.40;62.10;;;;;;5031826;28;20551;-74
2022/06/08 00:24:33;;;;;;;3.25;1.00;;;19.40;62.10;;;;;;5033465;28;20032;-73
2022/06/08 00:27:00;;;;;;;0.60;0.30;;;19.40;62.20;;;;;;5040010;28;20116;-73
2022/06/08 00:29:27;;;;;;;0.68;0.28;;;19.30;62.10;;;;;;5006173;28;20059;-72
2022/06/08 00:31:55;;;;;;;0.82;0.40;;;19.30;62.20;;;;;;5020546;28;20025;-72
2022/06/08 00:34:21;;;;;;;1.77;0.30;;;19.30;62.20;;;;;;5034359;28;20741;-72
2022/06/08 00:36:47;;;;;;;0.40;0.38;;;19.30;62.30;;;;;;5018280;28;20557;-72
2022/06/08 00:39:14;;;;;;;0.90;0.38;;;19.30;62.30;;;;;;5037125;28;20028;-73
2022/06/08 00:41:42;;;;;;;1.35;0.30;;;19.20;62.20;;;;;;5033577;28;20607;-72
2022/06/08 00:44:34;;;;;;;0.63;0.30;;;19.20;62.30;;;;;;5026109;28;20084;-73
2022/06/08 00:47:05;;;;;;;0.65;0.22;;;19.20;62.50;;;;;;5041132;28;20124;-73
2022/06/08 00:49:40;;;;;;;1.17;0.30;;;19.20;62.40;;;;;;5050466;28;20061;-73
2022/06/08 00:52:06;;;;;;;0.50;0.20;;;19.20;62.50;;;;;;5017713;28;20052;-73
2022/06/08 00:54:38;;;;;;;0.30;0.20;;;19.20;62.50;;;;;;5027950;28;20572;-73
2022/06/08 00:57:10;;;;;;;0.40;0.20;;;19.20;62.60;;;;;;5038107;28;20044;-73
2022/06/08 00:59:48;;;;;;;0.85;0.20;;;19.20;62.70;;;;;;5034735;28;20500;-72
2022/06/08 01:02:16;;;;;;;0.77;0.20;;;19.20;62.70;;;;;;5027744;28;20075;-72
2022/06/08 01:04:42;;;;;;;0.30;0.10;;;19.20;62.70;;;;;;5037453;28;20491;-73
2022/06/08 01:07:17;;;;;;;1.25;0.40;;;19.10;62.50;;;;;;5035319;28;20039;-71
2022/06/08 01:09:43;;;;;;;0.98;0.40;;;19.20;62.80;;;;;;5034730;28;20274;-72
2022/06/08 01:12:14;;;;;;;0.68;0.30;;;19.20;62.70;;;;;;5043051;28;20557;-73
2022/06/08 01:14:47;;;;;;;1.10;0.20;;;19.20;62.80;;;;;;5036093;28;20563;-72
2022/06/08 01:17:17;;;;;;;0.88;0.40;;;19.20;62.80;;;;;;5044406;28;20542;-72
2022/06/08 01:19:47;;;;;;;0.75;0.45;;;19.20;62.90;;;;;;5007498;28;20511;-72
2022/06/08 01:22:19;;;;;;;0.50;0.20;;;19.10;62.70;;;;;;5018727;28;20041;-73
2022/06/08 01:24:51;;;;;;;0.40;0.20;;;19.10;62.80;;;;;;5017073;28;20366;-72
2022/06/08 01:27:49;;;;;;;0.68;0.30;;;19.10;62.80;;;;;;5030078;28;20036;-72
2022/06/08 01:30:37;;;;;;;1.80;0.30;;;19.10;62.90;;;;;;5024593;28;20071;-73
2022/06/08 01:33:37;;;;;;;0.50;0.20;;;19.10;63.00;;;;;;5022743;28;20045;-71
2022/06/08 01:36:19;;;;;;;0.68;0.30;;;19.10;63.00;;;;;;5039922;28;20373;-72
2022/06/08 01:38:52;;;;;;;0.65;0.30;;;19.10;63.30;;;;;;5051554;28;20036;-72
2022/06/08 01:41:52;;;;;;;0.40;0.20;;;19.10;63.10;;;;;;5014265;28;20128;-71
2022/06/08 01:45:28;;;;;;;0.98;0.30;;;19.10;63.10;;;;;;5023509;28;20028;-72
2022/06/08 01:47:57;;;;;;;0.60;0.30;;;19.00;63.10;;;;;;5025233;28;20527;-72
2022/06/08 01:50:35;;;;;;;1.08;0.30;;;19.00;63.10;;;;;;5027672;28;20041;-73
2022/06/08 01:53:31;;;;;;;0.85;0.30;;;19.00;63.10;;;;;;5051734;28;20044;-74
2022/06/08 01:56:22;;;;;;;2.75;0.30;;;19.00;63.20;;;;;;5036987;28;20575;-71
2022/06/08 01:59:06;;;;;;;1.23;0.50;;;19.00;63.30;;;;;;5030600;28;20029;-72
2022/06/08 02:01:47;;;;;;;1.23;0.40;;;18.90;63.20;;;;;;5041481;28;20107;-72
2022/06/08 02:04:37;;;;;;;0.60;0.60;;;18.90;63.30;;;;;;5044859;28;20037;-72
2022/06/08 02:07:13;;;;;;;1.65;0.40;;;18.90;63.30;;;;;;5064318;28;20033;-72
2022/06/08 02:10:05;;;;;;;1.83;0.40;;;18.90;63.50;;;;;;5040279;28;20441;-73
2022/06/08 02:12:34;;;;;;;1.70;0.38;;;18.90;63.50;;;;;;5056067;28;20049;-72
2022/06/08 02:15:16;;;;;;;1.25;0.50;;;18.80;63.30;;;;;;5045293;28;20075;-71
2022/06/08 02:17:52;;;;;;;1.42;0.45;;;18.90;63.70;;;;;;5038077;28;20039;-73
2022/06/08 02:20:36;;;;;;;2.03;0.77;;;18.80;63.50;;;;;;5031099;28;20025;-72
2022/06/08 02:23:10;;;;;;;2.42;0.50;;;18.80;63.60;;;;;;5030935;28;20075;-74
2022/06/08 02:25:43;;;;;;;1.02;0.40;;;18.80;63.60;;;;;;5017841;28;20059;-72
2022/06/08 02:28:28;;;;;;;2.13;0.80;;;18.80;63.70;;;;;;5038831;28;20049;-71
2022/06/08 02:31:13;;;;;;;1.63;0.60;;;18.80;63.70;;;;;;5056423;28;20265;-72
2022/06/08 02:36:37;;;;;;;1.77;0.47;;;18.80;63.70;;;;;;5039751;28;20054;-72
2022/06/08 02:39:11;;;;;;;1.52;0.82;;;18.80;63.80;;;;;;5049904;28;20154;-73
2022/06/08 02:41:41;;;;;;;4.47;0.80;;;18.70;63.70;;;;;;5026868;28;20033;-72
2022/06/08 02:44:13;;;;;;;3.25;0.82;;;18.80;63.90;;;;;;5049609;28;20165;-71
2022/06/08 02:47:13;;;;;;;4.68;1.52;;;18.70;63.70;;;;;;5045463;28;20064;-71
2022/06/08 02:49:41;;;;;;;2.25;0.70;;;18.70;63.90;;;;;;5055693;28;20040;-71
2022/06/08 02:52:21;;;;;;;3.22;0.90;;;18.70;63.80;;;;;;5045415;28;20044;-72
2022/06/08 02:54:51;;;;;;;1.52;0.80;;;18.70;63.90;;;;;;5061091;28;20031;-72
2022/06/08 02:57:41;;;;;;;3.75;1.10;;;18.70;63.90;;;;;;5077366;28;20063;-72
2022/06/08 03:00:24;;;;;;;3.58;0.93;;;18.70;63.90;;;;;;5061199;28;20073;-72
2022/06/08 03:03:05;;;;;;;4.55;1.15;;;18.70;63.90;;;;;;5056683;28;20400;-71
2022/06/08 03:05:42;;;;;;;3.40;1.27;;;18.60;63.80;;;;;;5038007;28;20033;-72
2022/06/08 03:08:12;;;;;;;5.05;1.50;;;18.60;63.80;;;;;;5058634;28;20036;-71
2022/06/08 03:10:42;;;;;;;2.70;1.30;;;18.60;63.80;;;;;;5055813;28;20052;-72
2022/06/08 03:13:16;;;;;;;2.20;0.93;;;18.60;64.40;;;;;;5072292;28;20036;-72
2022/06/08 03:15:48;;;;;;;4.25;1.60;;;18.60;63.90;;;;;;5080087;28;20063;-72
2022/06/08 03:18:14;;;;;;;3.95;0.90;;;18.60;63.80;;;;;;5069424;28;20035;-72
2022/06/08 03:20:41;;;;;;;4.57;1.65;;;18.60;63.80;;;;;;5063229;28;20064;-71
2022/06/08 03:23:07;;;;;;;4.57;1.02;;;18.60;63.90;;;;;;5080454;28;20028;-72
2022/06/08 03:25:35;;;;;;;5.68;1.65;;;18.60;63.90;;;;;;5061231;28;20137;-72
2022/06/08 03:28:02;;;;;;;2.40;0.88;;;18.60;63.90;;;;;;5062808;28;20031;-73
2022/06/08 03:30:28;;;;;;;5.70;1.20;;;18.60;63.90;;;;;;5069016;28;20033;-72
2022/06/08 03:32:55;;;;;;;5.15;1.33;;;18.60;63.90;;;;;;5074138;28;20065;-71
2022/06/08 03:35:22;;;;;;;8.27;1.60;;;18.60;63.90;;;;;;5069300;28;20035;-73
2022/06/08 03:37:49;;;;;;;5.82;1.52;;;18.60;63.90;;;;;;5084788;28;20075;-72
2022/06/08 03:40:18;;;;;;;3.63;1.00;;;18.60;63.90;;;;;;5077821;28;20054;-71
2022/06/08 03:42:44;;;;;;;6.03;1.75;;;18.60;63.90;;;;;;5070693;28;20021;-72
2022/06/08 03:45:10;;;;;;;6.85;1.30;;;18.60;63.90;;;;;;5085041;28;20059;-72
2022/06/08 03:47:48;;;;;;;3.08;1.35;;;18.60;63.90;;;;;;5082249;28;20049;-72
2022/06/08 03:50:17;;;;;;;4.45;1.55;;;18.60;64.00;;;;;;5066294;28;20029;-71
2022/06/08 03:52:50;;;;;;;5.60;1.27;;;18.60;63.90;;;;;;5064901;28;20021;-72
2022/06/08 03:55:19;;;;;;;3.63;0.85;;;18.60;63.90;;;;;;5063329;28;20025;-72
2022/06/08 03:57:47;;;;;;;4.45;1.60;;;18.60;63.90;;;;;;5064462;28;20037;-72
2022/06/08 04:00:16;;;;;;;4.38;0.95;;;18.60;63.90;;;;;;5046178;28;20123;-72
2022/06/08 04:02:55;;;;;;;3.95;1.15;;;18.50;63.70;;;;;;5030143;28;20021;-72
2022/06/08 04:05:25;;;;;;;4.32;1.33;;;18.50;63.70;;;;;;5044057;28;20066;-72
2022/06/08 04:07:52;;;;;;;6.13;1.02;;;18.50;63.70;;;;;;5018727;28;20083;-72
2022/06/08 04:10:18;;;;;;;4.78;1.35;;;18.50;63.70;;;;;;5030084;28;20489;-72
2022/06/08 04:12:45;;;;;;;4.68;1.60;;;18.50;63.80;;;;;;5020740;28;20032;-71
2022/06/08 04:15:41;;;;;;;4.78;1.38;;;18.40;63.60;;;;;;5051155;28;20043;-72
2022/06/08 04:18:00;;;;;;;3.20;0.85;;;18.40;63.70;;;;;;5048287;28;20103;-72
2022/06/08 04:20:28;;;;;;;5.22;1.40;;;18.40;63.60;;;;;;5032583;28;20039;-72
2022/06/08 04:22:54;;;;;;;3.28;0.77;;;18.40;63.60;;;;;;5031919;28;20025;-72
2022/06/08 04:25:21;;;;;;;4.93;0.80;;;18.40;63.60;;;;;;5039932;28;20511;-71
2022/06/08 04:27:49;;;;;;;2.58;1.42;;;18.40;63.60;;;;;;5026388;28;20119;-71
2022/06/08 04:30:16;;;;;;;5.70;1.50;;;18.40;63.60;;;;;;5013834;28;20554;-73
2022/06/08 04:32:43;;;;;;;5.05;0.77;;;18.40;63.60;;;;;;5030214;28;20049;-71
2022/06/08 04:35:12;;;;;;;4.05;0.85;;;18.40;63.50;;;;;;5030057;28;20021;-72
2022/06/08 04:37:39;;;;;;;1.77;0.98;;;18.40;63.50;;;;;;5047336;28;20021;-72
2022/06/08 04:40:27;;;;;;;2.60;0.85;;;18.40;63.50;;;;;;5032264;28;20049;-72
2022/06/08 04:42:56;;;;;;;4.15;1.25;;;18.40;63.40;;;;;;5046546;28;20029;-73
2022/06/08 04:45:25;;;;;;;2.80;0.73;;;18.40;63.40;;;;;;5060811;28;20147;-73
2022/06/08 04:47:51;;;;;;;4.70;1.90;;;18.40;63.50;;;;;;5026796;28;20052;-73
2022/06/08 04:50:18;;;;;;;3.80;0.85;;;18.30;63.30;;;;;;5029039;28;20052;-72
2022/06/08 04:52:45;;;;;;;4.55;1.42;;;18.30;63.30;;;;;;5029409;28;20536;-72
2022/06/08 04:55:15;;;;;;;6.28;1.50;;;18.30;63.30;;;;;;5038906;28;20068;-71
2022/06/08 04:57:44;;;;;;;3.40;0.77;;;18.30;63.40;;;;;;5023954;28;20038;-72
2022/06/08 05:00:17;;;;;;;2.35;1.15;;;18.30;63.40;;;;;;5046008;28;20047;-72
2022/06/08 05:02:44;;;;;;;2.97;0.88;;;18.30;63.40;;;;;;5024008;28;20029;-72
2022/06/08 05:05:19;;;;;;;2.97;0.98;;;18.30;63.40;;;;;;5006092;28;20036;-71
2022/06/08 05:07:47;;;;;;;5.10;1.02;;;18.30;63.40;;;;;;5025743;28;20025;-72
2022/06/08 05:10:14;;;;;;;4.47;1.20;;;18.30;63.40;;;;;;5036634;28;20033;-72
2022/06/08 05:12:42;;;;;;;2.70;0.82;;;18.30;63.40;;;;;;5024411;28;20036;-73
2022/06/08 05:15:12;;;;;;;3.97;1.55;;;18.30;63.40;;;;;;5024070;28;20031;-73
2022/06/08 05:17:38;;;;;;;4.40;0.70;;;18.30;63.40;;;;;;5005430;28;20028;-72
2022/06/08 05:20:08;;;;;;;2.97;0.80;;;18.30;63.30;;;;;;5023386;28;20021;-74
2022/06/08 05:22:37;;;;;;;4.25;1.42;;;18.30;63.20;;;;;;5008609;28;20084;-73
2022/06/08 05:25:07;;;;;;;2.85;0.70;;;18.30;63.20;;;;;;5023758;28;20025;-74
2022/06/08 05:27:34;;;;;;;3.35;0.90;;;18.40;63.30;;;;;;5022908;28;20025;-73
2022/06/08 05:30:01;;;;;;;3.63;0.95;;;18.50;63.30;;;;;;5025765;28;20063;-73
2022/06/08 05:32:29;;;;;;;1.95;0.93;;;18.50;63.20;;;;;;5007954;28;20411;-74
2022/06/08 05:34:55;;;;;;;2.60;0.75;;;18.60;63.30;;;;;;5024772;28;20033;-73
2022/06/08 05:37:21;;;;;;;2.72;1.02;;;18.60;63.10;;;;;;5001510;28;20036;-73
2022/06/08 05:39:47;;;;;;;1.55;0.52;;;18.70;63.20;;;;;;5024606;28;20025;-74
2022/06/08 05:42:14;;;;;;;4.72;1.55;;;18.80;63.20;;;;;;5027444;28;20222;-73
2022/06/08 05:44:42;;;;;;;3.08;1.08;;;18.90;63.30;;;;;;5027583;28;20029;-73
2022/06/08 05:47:08;;;;;;;3.95;0.52;;;19.00;63.20;;;;;;5032314;28;20407;-73
2022/06/08 05:49:34;;;;;;;1.90;0.82;;;19.20;63.20;;;;;;5048060;28;20447;-75
2022/06/08 05:52:06;;;;;;;2.53;0.80;;;19.30;63.00;;;;;;5042374;28;20028;-73
2022/06/08 05:54:33;;;;;;;5.32;0.70;;;19.40;63.00;;;;;;5049409;28;20040;-74
2022/06/08 05:57:01;;;;;;;1.77;0.77;;;19.50;62.90;;;;;;5066715;28;20025;-74
2022/06/08 05:59:36;;;;;;;9.60;3.05;;;19.60;62.80;;;;;;5035605;28;20032;-73
2022/06/08 06:02:04;;;;;;;2.88;0.80;;;19.70;62.80;;;;;;5047374;28;20035;-72
2022/06/08 06:04:30;;;;;;;1.85;0.70;;;19.80;62.90;;;;;;5044999;28;20036;-72
2022/06/08 06:06:56;;;;;;;1.80;0.52;;;19.80;62.70;;;;;;5043645;28;20025;-72
2022/06/08 06:09:26;;;;;;;6.90;1.30;;;19.90;62.80;;;;;;5064455;28;20519;-73
2022/06/08 06:11:52;;;;;;;4.10;1.13;;;19.90;62.70;;;;;;5045942;28;20044;-73
2022/06/08 06:14:20;;;;;;;3.13;1.02;;;19.90;62.70;;;;;;5029329;28;20036;-72
2022/06/08 06:16:48;;;;;;;3.78;0.73;;;19.90;62.60;;;;;;5046300;28;20025;-73
2022/06/08 06:19:14;;;;;;;2.80;0.80;;;19.90;62.60;;;;;;5065456;28;20514;-73
2022/06/08 06:21:54;;;;;;;3.00;1.08;;;19.90;62.60;;;;;;5031059;28;20029;-74
2022/06/08 06:24:38;;;;;;;4.10;1.00;;;19.90;62.60;;;;;;5062974;28;20037;-73
2022/06/08 06:27:37;;;;;;;1.85;0.63;;;19.90;62.50;;;;;;5019191;28;20037;-75
2022/06/08 06:30:21;;;;;;;4.18;0.60;;;20.00;62.70;;;;;;5058465;28;20032;-73
2022/06/08 06:33:18;;;;;;;3.17;0.98;;;20.10;62.80;;;;;;5044951;28;20519;-73
2022/06/08 06:35:47;;;;;;;4.05;0.98;;;20.40;62.80;;;;;;5042875;28;20384;-74
2022/06/08 06:38:13;;;;;;;3.00;0.98;;;20.60;63.00;;;;;;5041236;28;20107;-75
2022/06/08 06:40:40;;;;;;;3.08;0.90;;;20.90;63.10;;;;;;5044527;28;20024;-72
2022/06/08 06:43:10;;;;;;;2.70;1.33;;;21.00;62.80;;;;;;5028508;28;20511;-73
2022/06/08 06:45:56;;;;;;;3.95;1.02;;;21.10;62.90;;;;;;5056581;28;20041;-73
2022/06/08 06:48:57;;;;;;;2.10;0.73;;;21.30;62.90;;;;;;5037298;28;20033;-73
2022/06/08 06:51:22;;;;;;;3.47;0.93;;;22.00;62.90;;;;;;5042762;28;20032;-73
2022/06/08 06:53:49;;;;;;;4.00;0.95;;;22.70;62.60;;;;;;5025269;28;20480;-75
2022/06/08 06:56:17;;;;;;;6.53;1.02;;;23.40;62.10;;;;;;5043594;28;20035;-73
2022/06/08 06:58:53;;;;;;;6.85;1.98;;;24.00;61.70;;;;;;5045503;28;20039;-73
2022/06/08 07:01:20;;;;;;;3.90;1.15;;;24.60;61.40;;;;;;5036386;28;20737;-73
2022/06/08 07:03:46;;;;;;;3.60;1.17;;;24.90;61.10;;;;;;5047689;28;20032;-74
2022/06/08 07:06:13;;;;;;;4.50;0.82;;;24.90;60.80;;;;;;5044372;28;20122;-73
2022/06/08 07:08:39;;;;;;;4.10;1.08;;;25.00;60.80;;;;;;5046073;28;20523;-73
2022/06/08 07:13:53;;;;;;;3.67;1.10;;;25.60;60.30;;;;;;5046594;28;20330;-74
2022/06/08 07:16:20;;;;;;;1.30;0.77;;;26.20;59.20;;;;;;5041466;28;20048;-73
2022/06/08 07:18:46;;;;;;;2.67;0.93;;;26.40;58.60;;;;;;5048495;28;20286;-74
2022/06/08 07:21:12;;;;;;;2.80;0.73;;;26.50;58.20;;;;;;5042207;28;20060;-74
2022/06/08 07:23:39;;;;;;;4.30;1.35;;;26.50;58.10;;;;;;5059141;28;20032;-73
2022/06/08 07:26:05;;;;;;;2.03;0.70;;;26.40;58.20;;;;;;5062349;28;20036;-74
2022/06/08 07:28:32;;;;;;;3.03;1.10;;;26.30;58.40;;;;;;5063897;28;20020;-73
2022/06/08 07:31:00;;;;;;;4.13;1.08;;;26.20;58.50;;;;;;5054167;28;20029;-74
2022/06/08 07:33:26;;;;;;;3.28;0.80;;;26.50;58.30;;;;;;5031088;28;20558;-74
2022/06/08 07:35:52;;;;;;;4.15;1.08;;;27.10;57.30;;;;;;5053920;28;20087;-73
2022/06/08 07:38:18;;;;;;;4.25;0.77;;;27.70;56.00;;;;;;5068749;28;20025;-74
2022/06/08 07:40:45;;;;;;;4.45;0.88;;;28.30;54.70;;;;;;5065682;28;20036;-73
2022/06/08 07:43:11;;;;;;;4.25;1.35;;;28.50;54.20;;;;;;5065414;28;20119;-74
2022/06/08 07:45:37;;;;;;;4.70;1.83;;;28.60;53.90;;;;;;5058728;28;20817;-73
2022/06/08 07:50:48;;;;;;;3.70;1.00;;;28.70;53.50;;;;;;5038415;28;20037;-75
2022/06/08 07:53:15;;;;;;;3.03;1.00;;;28.80;53.10;;;;;;5058491;28;20044;-74
2022/06/08 07:55:42;;;;;;;3.47;1.10;;;28.60;52.90;;;;;;5069327;28;20127;-75
2022/06/08 07:58:08;;;;;;;3.15;0.90;;;28.40;53.20;;;;;;5073026;28;20357;-74
2022/06/08 08:00:34;;;;;;;2.55;0.85;;;28.20;53.50;;;;;;5068614;28;20066;-74
2022/06/08 08:03:02;;;;;;;2.95;0.95;;;28.10;53.60;;;;;;5064351;28;20036;-74
2022/06/08 08:05:28;;;;;;;2.92;1.00;;;28.00;53.70;;;;;;5065735;28;20090;-73
2022/06/08 08:07:54;;;;;;;3.72;0.93;;;28.00;53.90;;;;;;5059281;28;20035;-75
2022/06/08 08:10:24;;;;;;;3.50;1.00;;;28.00;54.00;;;;;;5063025;28;20020;-75
2022/06/08 08:12:55;;;;;;;4.53;1.00;;;28.10;53.90;;;;;;5046784;28;20044;-73
2022/06/08 08:15:23;;;;;;;4.25;1.23;;;28.30;53.80;;;;;;5064220;28;20028;-73
2022/06/08 08:17:49;;;;;;;2.47;0.85;;;28.50;53.50;;;;;;5067843;28;20033;-73
2022/06/08 08:20:17;;;;;;;3.55;1.10;;;28.60;53.20;;;;;;5062958;28;20416;-73
2022/06/08 08:22:43;;;;;;;3.17;1.15;;;28.70;52.90;;;;;;5066294;28;20028;-73
2022/06/08 08:25:10;;;;;;;3.08;0.80;;;28.90;52.70;;;;;;5046316;28;20078;-74
2022/06/08 08:27:36;;;;;;;3.22;1.00;;;29.10;52.40;;;;;;5076312;28;20507;-74
2022/06/08 08:30:03;;;;;;;3.42;1.10;;;29.30;52.10;;;;;;5073429;28;20227;-74
2022/06/08 08:32:29;;;;;;;3.45;1.42;;;29.40;51.60;;;;;;5065988;28;20435;-73
2022/06/08 08:34:55;;;;;;;4.40;1.00;;;29.60;51.40;;;;;;5053288;28;20033;-74
2022/06/08 08:37:21;;;;;;;3.88;1.25;;;29.70;51.70;;;;;;5063556;28;20047;-72
2022/06/08 08:39:47;;;;;;;2.90;0.88;;;29.80;50.90;;;;;;5067323;28;20476;-74
2022/06/08 08:42:22;;;;;;;3.40;0.70;;;29.90;50.60;;;;;;5064113;28;20043;-74
2022/06/08 08:45:01;;;;;;;3.55;1.10;;;30.00;50.30;;;;;;5063540;28;20665;-74
2022/06/08 08:47:59;;;;;;;2.92;0.90;;;30.00;50.10;;;;;;5072534;28;20063;-73
2022/06/08 08:50:30;;;;;;;4.03;0.90;;;29.90;50.00;;;;;;5068390;28;20043;-74
2022/06/08 08:53:07;;;;;;;3.03;1.02;;;29.80;50.10;;;;;;5065765;28;20507;-73
2022/06/08 08:55:42;;;;;;;4.93;0.90;;;29.80;50.10;;;;;;5062203;28;20029;-74
2022/06/08 08:58:25;;;;;;;2.30;0.93;;;29.80;49.90;;;;;;5070077;28;20041;-73
2022/06/08 09:01:23;;;;;;;3.50;0.70;;;29.80;50.00;;;;;;5058801;28;20056;-75
2022/06/08 09:03:54;;;;;;;5.03;1.63;;;29.70;49.90;;;;;;5057048;28;20032;-76
2022/06/08 09:06:27;;;;;;;2.80;0.82;;;29.80;50.10;;;;;;5042535;28;20491;-75
2022/06/08 09:09:03;;;;;;;3.78;1.30;;;29.90;49.90;;;;;;5045348;28;20031;-73
2022/06/08 09:11:41;;;;;;;3.00;0.95;;;30.10;49.60;;;;;;5063413;28;20134;-75
2022/06/08 09:14:19;;;;;;;3.33;1.35;;;30.30;49.20;;;;;;5042063;28;20116;-74
2022/06/08 09:17:07;;;;;;;4.72;1.17;;;30.50;48.80;;;;;;5072948;28;20028;-74
2022/06/08 09:19:41;;;;;;;3.35;1.00;;;30.80;48.50;;;;;;5050074;28;20570;-76
2022/06/08 09:22:07;;;;;;;2.65;1.10;;;31.00;48.00;;;;;;5042382;28;20115;-75
2022/06/08 09:24:34;;;;;;;3.67;1.15;;;31.20;47.90;;;;;;5053809;28;20036;-74
2022/06/08 09:27:26;;;;;;;3.85;1.25;;;31.40;47.50;;;;;;5073500;28;20617;-74
2022/06/08 09:29:58;;;;;;;4.72;0.98;;;31.70;46.90;;;;;;5053683;28;20062;-75
2022/06/08 09:32:34;;;;;;;2.47;0.80;;;31.70;46.90;;;;;;5043437;28;20459;-75
2022/06/08 09:35:14;;;;;;;3.88;1.05;;;31.80;46.70;;;;;;5046249;28;20063;-75
2022/06/08 09:37:41;;;;;;;4.78;1.42;;;31.80;46.60;;;;;;5061050;28;20104;-74
2022/06/08 09:40:36;;;;;;;3.08;0.90;;;31.80;46.60;;;;;;5050926;28;20028;-74
2022/06/08 09:43:05;;;;;;;4.47;1.02;;;32.00;46.30;;;;;;5070606;28;20391;-75
2022/06/08 09:45:43;;;;;;;3.13;1.25;;;32.10;46.00;;;;;;5056036;28;20032;-75
2022/06/08 09:51:30;;;;;;;2.92;1.20;;;32.30;45.50;;;;;;5076098;28;20024;-74
2022/06/08 09:54:09;;;;;;;3.70;1.08;;;32.20;45.70;;;;;;5052249;28;20495;-74
2022/06/08 09:56:47;;;;;;;3.92;1.02;;;31.90;45.90;;;;;;5067744;28;20028;-77
2022/06/08 09:59:28;;;;;;;6.63;1.75;;;31.80;46.10;;;;;;5046953;28;20055;-73
2022/06/08 10:02:10;;;;;;;3.55;1.20;;;31.80;45.90;;;;;;5036740;28;20204;-76
2022/06/08 10:05:22;;;;;;;3.25;1.13;;;32.00;45.80;;;;;;5051779;28;20170;-75
2022/06/08 10:07:57;;;;;;;3.22;0.95;;;32.20;45.50;;;;;;5047001;28;20127;-74
2022/06/08 10:10:48;;;;;;;5.78;1.73;;;32.40;45.60;;;;;;5058527;28;20037;-74
2022/06/08 10:13:29;;;;;;;3.17;1.27;;;32.50;45.20;;;;;;5058551;28;20052;-73
2022/06/08 10:16:13;;;;;;;4.25;1.20;;;32.60;45.00;;;;;;5042593;28;20532;-75
2022/06/08 10:18:44;;;;;;;3.05;1.08;;;32.80;44.80;;;;;;5063001;28;20032;-76
2022/06/08 10:21:17;;;;;;;3.35;1.30;;;32.90;44.60;;;;;;5063145;28;20476;-74
2022/06/08 10:24:01;;;;;;;5.25;1.20;;;33.00;44.40;;;;;;5064029;28;20048;-72
2022/06/08 10:26:35;;;;;;;4.78;1.00;;;33.00;44.30;;;;;;5055936;28;20484;-75
2022/06/08 10:29:31;;;;;;;3.10;1.20;;;33.00;44.40;;;;;;5063016;28;20549;-76
2022/06/08 10:32:20;;;;;;;3.70;1.50;;;33.00;44.40;;;;;;5046457;28;20045;-75
2022/06/08 10:34:53;;;;;;;3.80;1.27;;;33.00;44.20;;;;;;5039953;28;20603;-74
2022/06/08 10:37:40;;;;;;;4.68;1.60;;;33.10;44.20;;;;;;5046263;28;20396;-74
2022/06/08 10:40:15;;;;;;;2.97;1.10;;;33.10;43.80;;;;;;5064365;28;20035;-74
2022/06/08 10:42:43;;;;;;;3.42;1.17;;;33.20;44.00;;;;;;5061976;28;20354;-74
2022/06/08 10:45:26;;;;;;;4.57;1.38;;;33.40;43.90;;;;;;5063519;28;20457;-74
2022/06/08 10:48:01;;;;;;;4.55;1.30;;;33.50;43.40;;;;;;5052957;28;20053;-74
2022/06/08 10:50:33;;;;;;;4.22;1.83;;;33.70;43.20;;;;;;5025397;28;20064;-74
2022/06/08 10:56:35;;;;;;;4.93;1.67;;;33.90;42.80;;;;;;5043375;28;20025;-73
2022/06/08 10:59:07;;;;;;;7.10;1.42;;;34.00;42.60;;;;;;5044362;28;20037;-73
2022/06/08 11:01:52;;;;;;;5.15;2.42;;;34.00;42.50;;;;;;5043021;28;20044;-75
2022/06/08 11:04:43;;;;;;;4.78;1.48;;;34.10;42.70;;;;;;5025898;28;20033;-73
2022/06/08 11:07:16;;;;;;;4.22;1.40;;;34.10;42.20;;;;;;5044489;28;20562;-76
2022/06/08 11:09:46;;;;;;;6.25;1.67;;;34.10;42.40;;;;;;5020223;28;20547;-76
2022/06/08 11:12:12;;;;;;;5.88;2.13;;;34.10;42.20;;;;;;5044366;28;20033;-74
2022/06/08 11:14:48;;;;;;;6.07;1.55;;;34.10;42.10;;;;;;5035768;28;20498;-75
2022/06/08 11:17:29;;;;;;;4.78;1.75;;;34.10;41.90;;;;;;5023483;28;20032;-75
2022/06/08 11:20:25;;;;;;;5.60;1.45;;;34.20;41.90;;;;;;5040297;28;20033;-74
2022/06/08 11:22:51;;;;;;;3.67;1.17;;;34.30;41.80;;;;;;5042969;28;20037;-75
2022/06/08 11:25:32;;;;;;;4.38;1.40;;;34.40;42.00;;;;;;5034722;28;20086;-73
2022/06/08 11:28:32;;;;;;;5.20;1.50;;;34.40;41.80;;;;;;5019202;28;20044;-74
2022/06/08 11:31:04;;;;;;;5.57;1.90;;;34.40;41.70;;;;;;5043923;28;20056;-74
2022/06/08 11:33:59;;;;;;;4.50;1.52;;;34.50;41.70;;;;;;5041987;28;20045;-74
2022/06/08 11:36:47;;;;;;;3.88;1.23;;;34.60;41.50;;;;;;5042555;28;20091;-74
2022/06/08 11:39:26;;;;;;;3.08;1.13;;;34.70;41.40;;;;;;5033832;28;20051;-74
2022/06/08 11:42:14;;;;;;;5.43;2.45;;;34.80;41.40;;;;;;5040294;28;20079;-75
2022/06/08 11:44:50;;;;;;;5.05;1.45;;;34.90;41.30;;;;;;5041699;28;20031;-75
2022/06/08 11:47:40;;;;;;;4.57;1.65;;;35.00;41.00;;;;;;5041310;28;20052;-77
2022/06/08 11:50:16;;;;;;;5.07;2.03;;;35.10;40.90;;;;;;5025466;28;20121;-74
2022/06/08 11:52:46;;;;;;;7.80;1.83;;;35.20;40.80;;;;;;5028727;28;20127;-74
2022/06/08 11:55:15;;;;;;;3.65;1.83;;;35.30;40.90;;;;;;5041333;28;20029;-74
2022/06/08 11:58:04;;;;;;;4.82;1.40;;;35.30;40.70;;;;;;5029251;28;20533;-75
2022/06/08 12:00:36;;;;;;;4.40;1.52;;;35.30;40.40;;;;;;5036839;28;20127;-75
2022/06/08 12:03:25;;;;;;;4.85;1.60;;;35.40;40.60;;;;;;5040438;28;20120;-75
2022/06/08 12:05:59;;;;;;;3.80;1.70;;;35.40;40.30;;;;;;5024136;28;20079;-75
2022/06/08 12:08:46;;;;;;;3.53;1.25;;;35.50;40.50;;;;;;5025616;28;20119;-74
2022/06/08 12:11:14;;;;;;;4.22;1.48;;;35.60;40.40;;;;;;5036736;28;20017;-74
2022/06/08 12:14:13;;;;;;;4.97;1.90;;;35.60;40.50;;;;;;5042083;28;20071;-74
2022/06/08 12:16:56;;;;;;;8.55;1.92;;;35.60;40.20;;;;;;5034927;28;20993;-74
2022/06/08 12:19:23;;;;;;;5.10;2.08;;;35.70;40.20;;;;;;5037419;28;20036;-74
2022/06/08 12:22:06;;;;;;;5.63;1.60;;;35.70;40.20;;;;;;5042409;28;20032;-73
2022/06/08 12:24:33;;;;;;;5.75;1.92;;;35.80;40.80;;;;;;5025641;28;20043;-74
2022/06/08 12:27:22;;;;;;;5.10;2.20;;;35.70;40.10;;;;;;5049084;28;20033;-74
2022/06/08 12:29:48;;;;;;;6.43;1.90;;;35.40;40.00;;;;;;5049269;28;20025;-74
2022/06/08 12:32:48;;;;;;;7.82;2.40;;;35.20;40.40;;;;;;5051872;28;20032;-73
2022/06/08 12:35:24;;;;;;;5.60;1.92;;;35.20;40.40;;;;;;5038392;28;20068;-74
2022/06/08 12:38:07;;;;;;;5.53;1.92;;;35.30;40.40;;;;;;5043722;28;20078;-76
2022/06/08 12:40:34;;;;;;;7.43;2.05;;;35.40;40.30;;;;;;5024265;28;20095;-73
2022/06/08 12:43:06;;;;;;;5.00;2.05;;;35.60;40.20;;;;;;5042728;28;20395;-76
2022/06/08 12:45:38;;;;;;;7.95;2.65;;;35.70;39.90;;;;;;5048666;28;20032;-74
2022/06/08 12:48:36;;;;;;;3.63;1.50;;;35.80;39.80;;;;;;5050901;28;20411;-74
2022/06/08 12:51:25;;;;;;;6.72;2.20;;;36.00;39.70;;;;;;5033143;28;20036;-75
2022/06/08 12:53:51;;;;;;;4.47;1.52;;;36.00;39.50;;;;;;5063390;28;20519;-75
2022/06/08 12:56:18;;;;;;;5.70;1.95;;;36.10;39.60;;;;;;5040354;28;20021;-73
2022/06/08 12:58:48;;;;;;;5.68;2.20;;;36.20;39.40;;;;;;5058826;28;20037;-74
2022/06/08 13:01:15;;;;;;;5.13;1.83;;;36.30;39.20;;;;;;5053108;28;20236;-74
2022/06/08 13:03:41;;;;;;;4.93;1.77;;;36.40;39.20;;;;;;5040790;28;20639;-75
2022/06/08 13:06:08;;;;;;;4.85;1.83;;;36.50;39.10;;;;;;5064985;28;20032;-75
2022/06/08 13:08:34;;;;;;;6.95;1.92;;;36.60;39.00;;;;;;5061609;28;20449;-76
2022/06/08 13:11:04;;;;;;;5.47;1.55;;;36.70;38.90;;;;;;5068934;28;20449;-74
2022/06/08 13:13:36;;;;;;;6.70;2.08;;;36.80;38.80;;;;;;5066133;28;20045;-74
2022/06/08 13:16:13;;;;;;;8.23;2.08;;;36.90;38.70;;;;;;5047694;28;20029;-74
2022/06/08 13:18:39;;;;;;;4.63;1.85;;;37.00;38.60;;;;;;5065558;28;20379;-73
2022/06/08 13:21:07;;;;;;;4.10;1.95;;;37.20;38.60;;;;;;5064881;28;20040;-74
2022/06/08 13:23:34;;;;;;;5.60;1.88;;;37.30;38.40;;;;;;5064467;28;20074;-74
2022/06/08 13:26:01;;;;;;;6.30;1.60;;;37.50;38.40;;;;;;5057234;28;20024;-74
2022/06/08 13:28:32;;;;;;;5.68;1.63;;;37.40;38.20;;;;;;5058368;28;20103;-73
2022/06/08 13:31:00;;;;;;;4.00;1.35;;;37.30;38.30;;;;;;5056307;28;20109;-74
2022/06/08 13:36:17;;;;;;;4.97;1.48;;;36.90;38.40;;;;;;5050142;28;20066;-73
2022/06/08 13:38:45;;;;;;;6.55;2.50;;;36.70;38.70;;;;;;5060211;28;20503;-74